createdAt,value
2023-01-24T00:01:10.902Z,8.95
2023-01-24T00:03:37.944Z,13.05
2023-01-24T00:06:05.139Z,14.45
2023-01-24T00:08:32.065Z,14.40
2023-01-24T00:11:04.626Z,12.32
2023-01-24T00:13:32.677Z,12.20
2023-01-24T00:16:20.690Z,14.35
2023-01-24T00:18:48.937Z,12.23
2023-01-24T00:21:23.484Z,9.60
2023-01-24T00:23:55.605Z,12.07
2023-01-24T00:26:24.692Z,10.77
2023-01-24T00:28:53.991Z,9.88
2023-01-24T00:31:26.111Z,8.93
2023-01-24T00:33:54.915Z,9.15
2023-01-24T00:36:21.848Z,8.75
2023-01-24T00:38:48.909Z,8.23
2023-01-24T00:41:15.902Z,9.15
2023-01-24T00:43:42.827Z,8.27
2023-01-24T00:46:10.493Z,9.15
2023-01-24T00:48:37.576Z,8.88
2023-01-24T00:51:05.139Z,9.45
2023-01-24T00:53:32.293Z,9.07
2023-01-24T00:55:59.251Z,9.25
2023-01-24T00:58:26.388Z,8.50
2023-01-24T01:00:56.973Z,8.75
2023-01-24T01:03:26.478Z,8.75
2023-01-24T01:06:01.746Z,6.85
2023-01-24T01:08:28.824Z,9.90
2023-01-24T01:10:55.997Z,9.50
2023-01-24T01:13:26.330Z,10.20
2023-01-24T01:16:17.409Z,9.40
2023-01-24T01:18:46.053Z,9.15
2023-01-24T01:21:15.166Z,8.20
2023-01-24T01:23:42.385Z,9.45
2023-01-24T01:26:15.392Z,8.50
2023-01-24T01:28:42.615Z,9.75
2023-01-24T01:31:09.821Z,8.30
2023-01-24T01:33:36.997Z,8.82
2023-01-24T01:36:04.315Z,10.32
2023-01-24T01:38:31.764Z,9.82
2023-01-24T01:40:59.451Z,10.30
2023-01-24T01:43:29.445Z,11.93
2023-01-24T01:46:21.069Z,8.68
2023-01-24T01:49:06.998Z,8.50
2023-01-24T01:51:42.356Z,9.95
2023-01-24T01:54:14.954Z,13.07
2023-01-24T01:56:44.133Z,10.05
2023-01-24T01:59:18.222Z,10.25
2023-01-24T02:01:46.510Z,11.50
2023-01-24T02:04:24.590Z,10.50
2023-01-24T02:07:18.215Z,11.00
2023-01-24T02:09:50.163Z,8.93
2023-01-24T02:12:31.766Z,10.63
2023-01-24T02:15:31.311Z,10.02
2023-01-24T02:18:00.796Z,11.48
2023-01-24T02:20:40.144Z,8.95
2023-01-24T02:23:44.492Z,9.40
2023-01-24T02:26:26.230Z,10.18
2023-01-24T02:28:55.649Z,10.20
2023-01-24T02:31:26.185Z,10.05
2023-01-24T02:33:56.384Z,10.30
2023-01-24T02:36:36.869Z,10.75
2023-01-24T02:39:13.077Z,11.90
2023-01-24T02:41:50.293Z,14.30
2023-01-24T02:44:49.281Z,10.77
2023-01-24T02:47:16.739Z,12.30
2023-01-24T02:49:43.748Z,10.57
2023-01-24T02:52:29.833Z,10.52
2023-01-24T02:54:57.032Z,10.10
2023-01-24T02:57:44.813Z,10.05
2023-01-24T03:00:12.395Z,11.00
2023-01-24T03:02:39.761Z,8.85
2023-01-24T03:05:07.337Z,13.35
2023-01-24T03:07:44.221Z,13.65
2023-01-24T03:10:20.069Z,12.63
2023-01-24T03:13:10.111Z,12.55
2023-01-24T03:15:55.734Z,12.05
2023-01-24T03:18:41.578Z,14.55
2023-01-24T03:21:27.443Z,13.93
2023-01-24T03:24:12.863Z,15.18
2023-01-24T03:26:58.291Z,11.50
2023-01-24T03:29:43.849Z,12.85
2023-01-24T03:32:30.272Z,10.90
2023-01-24T03:34:57.374Z,10.23
2023-01-24T03:37:48.001Z,10.05
2023-01-24T03:40:17.433Z,10.82
2023-01-24T03:42:49.504Z,10.98
2023-01-24T03:45:31.033Z,10.02
2023-01-24T03:48:00.486Z,10.05
2023-01-24T03:50:48.726Z,10.98
2023-01-24T03:53:16.462Z,8.95
2023-01-24T03:55:46.789Z,11.52
2023-01-24T03:58:15.846Z,12.20
2023-01-24T04:00:42.955Z,12.60
2023-01-24T04:03:26.594Z,13.13
2023-01-24T04:05:56.746Z,11.35
2023-01-24T04:08:26.566Z,14.60
2023-01-24T04:10:57.484Z,12.05
2023-01-24T04:13:25.222Z,11.10
2023-01-24T04:15:52.113Z,12.98
2023-01-24T04:18:44.056Z,12.60
2023-01-24T04:21:11.062Z,11.05
2023-01-24T04:23:39.262Z,10.23
2023-01-24T04:26:06.333Z,10.80
2023-01-24T04:28:34.236Z,12.23
2023-01-24T04:31:04.214Z,11.95
2023-01-24T04:34:03.776Z,13.88
2023-01-24T04:36:33.344Z,14.98
2023-01-24T04:39:01.710Z,15.25
2023-01-24T04:41:34.857Z,14.68
2023-01-24T04:44:02.362Z,14.23
2023-01-24T04:46:29.600Z,13.80
2023-01-24T04:48:57.270Z,13.55
2023-01-24T04:51:51.302Z,13.68
2023-01-24T04:54:24.579Z,14.40
2023-01-24T04:56:52.329Z,13.98
2023-01-24T04:59:23.023Z,12.25
2023-01-24T05:01:51.113Z,13.63
2023-01-24T05:04:33.351Z,11.93
2023-01-24T05:07:00.389Z,14.70
2023-01-24T05:09:27.562Z,13.70
2023-01-24T05:12:00.743Z,16.00
2023-01-24T05:14:28.965Z,16.02
2023-01-24T05:16:56.233Z,13.13
2023-01-24T05:19:26.560Z,15.02
2023-01-24T05:21:56.779Z,11.77
2023-01-24T05:24:26.668Z,14.80
2023-01-24T05:26:55.931Z,15.23
2023-01-24T05:29:26.757Z,16.17
2023-01-24T05:31:55.735Z,15.80
2023-01-24T05:34:22.743Z,14.80
2023-01-24T05:36:49.692Z,15.38
2023-01-24T05:39:16.931Z,15.48
2023-01-24T05:41:45.740Z,19.02
2023-01-24T05:44:14.602Z,17.48
2023-01-24T05:46:42.755Z,19.58
2023-01-24T05:49:20.253Z,18.27
2023-01-24T05:51:48.527Z,17.17
2023-01-24T05:54:26.673Z,17.23
2023-01-24T05:57:05.234Z,13.80
2023-01-24T05:59:52.137Z,15.13
2023-01-24T06:02:25.113Z,17.30
2023-01-24T06:04:52.145Z,14.68
2023-01-24T06:07:19.095Z,16.48
2023-01-24T06:09:46.246Z,13.60
2023-01-24T06:12:13.515Z,14.90
2023-01-24T06:14:41.467Z,19.00
2023-01-24T06:17:08.393Z,15.18
2023-01-24T06:19:35.853Z,19.52
2023-01-24T06:22:26.336Z,20.60
2023-01-24T06:24:54.736Z,18.92
2023-01-24T06:27:27.170Z,19.75
2023-01-24T06:29:57.497Z,17.58
2023-01-24T06:32:40.244Z,17.92
2023-01-24T06:35:41.549Z,16.55
2023-01-24T06:38:19.539Z,16.05
2023-01-24T06:40:47.283Z,14.95
2023-01-24T06:43:14.600Z,17.17
2023-01-24T06:45:42.230Z,14.93
2023-01-24T06:48:09.217Z,14.52
2023-01-24T06:50:36.549Z,13.90
2023-01-24T06:53:03.556Z,15.10
2023-01-24T06:55:31.228Z,13.35
2023-01-24T06:58:00.063Z,13.38
2023-01-24T07:00:29.365Z,14.48
2023-01-24T07:02:59.963Z,15.20
2023-01-24T07:05:28.018Z,15.88
2023-01-24T07:07:55.502Z,16.70
2023-01-24T07:10:24.999Z,15.75
2023-01-24T07:12:54.565Z,17.20
2023-01-24T07:15:21.994Z,17.17
2023-01-24T07:17:49.909Z,16.73
2023-01-24T07:20:17.487Z,16.13
2023-01-24T07:22:44.948Z,15.15
2023-01-24T07:25:18.341Z,13.18
2023-01-24T07:27:46.305Z,13.13
2023-01-24T07:30:14.253Z,14.05
2023-01-24T07:32:41.348Z,13.77
2023-01-24T07:35:08.710Z,14.85
2023-01-24T07:37:35.824Z,16.10
2023-01-24T07:40:03.636Z,16.77
2023-01-24T07:42:30.695Z,16.83
2023-01-24T07:44:57.986Z,15.60
2023-01-24T07:47:27.308Z,16.55
2023-01-24T07:49:58.073Z,18.05
2023-01-24T07:52:25.154Z,14.95
2023-01-24T07:54:52.133Z,19.55
2023-01-24T07:57:19.179Z,18.58
2023-01-24T07:59:46.239Z,15.77
2023-01-24T08:02:13.486Z,18.00
2023-01-24T08:04:40.587Z,17.95
2023-01-24T08:07:19.802Z,18.85
2023-01-24T08:09:48.197Z,22.42
2023-01-24T08:12:16.057Z,18.80
2023-01-24T08:14:43.230Z,18.80
2023-01-24T08:17:11.039Z,18.02
2023-01-24T08:19:56.054Z,19.75
2023-01-24T08:22:26.279Z,18.67
2023-01-24T08:24:56.332Z,18.33
2023-01-24T08:27:23.483Z,16.48
2023-01-24T08:29:50.505Z,16.70
2023-01-24T08:32:17.795Z,14.15
2023-01-24T08:34:47.762Z,15.23
2023-01-24T08:37:14.839Z,14.82
2023-01-24T08:39:41.899Z,16.88
2023-01-24T08:42:09.754Z,14.68
2023-01-24T08:44:36.899Z,13.13
2023-01-24T08:47:03.906Z,12.38
2023-01-24T08:49:30.888Z,14.82
2023-01-24T08:52:00.436Z,15.07
2023-01-24T08:54:28.730Z,12.32
2023-01-24T08:56:56.228Z,14.60
2023-01-24T08:59:23.515Z,14.05
2023-01-24T09:01:50.736Z,13.60
2023-01-24T09:04:17.931Z,12.43
2023-01-24T09:06:44.968Z,13.35
2023-01-24T09:09:12.632Z,13.45
2023-01-24T09:11:39.643Z,15.00
2023-01-24T09:14:09.331Z,12.20
2023-01-24T09:16:36.557Z,10.90
2023-01-24T09:19:03.699Z,12.07
2023-01-24T09:21:30.800Z,11.00
2023-01-24T09:23:57.773Z,14.48
2023-01-24T09:26:24.930Z,11.80
2023-01-24T09:28:52.057Z,14.25
2023-01-24T09:31:19.118Z,14.38
2023-01-24T09:33:58.617Z,14.98
2023-01-24T09:36:27.021Z,14.48
2023-01-24T09:39:05.933Z,16.80
2023-01-24T09:41:42.396Z,16.50
2023-01-24T09:44:41.400Z,14.93
2023-01-24T09:47:19.161Z,18.42
2023-01-24T09:50:11.133Z,16.02
2023-01-24T09:52:45.245Z,18.85
2023-01-24T09:55:25.093Z,23.02
2023-01-24T09:57:56.767Z,19.88
2023-01-24T10:00:27.532Z,17.77
2023-01-24T10:03:00.619Z,18.60
2023-01-24T10:05:39.824Z,19.83
2023-01-24T10:08:23.951Z,19.80
2023-01-24T10:11:29.596Z,18.13
2023-01-24T10:14:14.110Z,18.13
2023-01-24T10:17:06.154Z,17.50
2023-01-24T10:19:50.982Z,19.00
2023-01-24T10:23:05.035Z,21.45
2023-01-24T10:26:02.853Z,16.52
2023-01-24T10:28:36.067Z,14.85
2023-01-24T10:31:08.788Z,13.98
2023-01-24T10:33:42.634Z,14.68
2023-01-24T10:36:20.769Z,13.55
2023-01-24T10:38:47.865Z,14.98
2023-01-24T10:41:21.806Z,16.92
2023-01-24T10:44:16.726Z,15.48
2023-01-24T10:47:00.787Z,12.77
2023-01-24T10:49:37.488Z,14.18
2023-01-24T10:52:22.180Z,12.48
2023-01-24T10:54:57.851Z,12.95
2023-01-24T10:57:45.137Z,11.85
2023-01-24T11:00:32.095Z,11.48
2023-01-24T11:03:20.718Z,10.95
2023-01-24T11:05:56.790Z,11.52
2023-01-24T11:08:37.906Z,10.93
2023-01-24T11:11:21.427Z,10.30
2023-01-24T11:13:50.736Z,8.82
2023-01-24T11:16:18.576Z,12.68
2023-01-24T11:18:55.058Z,9.82
2023-01-24T11:21:22.429Z,11.25
2023-01-24T11:24:01.896Z,11.57
2023-01-24T11:26:31.389Z,11.63
2023-01-24T11:29:04.102Z,11.05
2023-01-24T11:31:38.053Z,10.48
2023-01-24T11:34:42.596Z,10.50
2023-01-24T11:37:12.599Z,8.85
2023-01-24T11:39:56.395Z,10.68
2023-01-24T11:42:42.428Z,12.55
2023-01-24T11:45:18.407Z,10.93
2023-01-24T11:47:54.204Z,12.27
2023-01-24T11:50:30.035Z,10.57
2023-01-24T11:53:18.511Z,12.25
2023-01-24T11:56:15.154Z,11.40
2023-01-24T11:58:50.952Z,12.00
2023-01-24T12:01:54.823Z,11.25
2023-01-24T12:04:40.568Z,12.45
2023-01-24T12:07:13.728Z,10.98
2023-01-24T12:09:46.776Z,9.98
2023-01-24T12:12:58.035Z,9.82
2023-01-24T12:15:33.080Z,10.82
2023-01-24T12:18:09.234Z,9.85
2023-01-24T12:21:05.649Z,10.35
2023-01-24T12:23:41.734Z,10.63
2023-01-24T12:26:37.215Z,9.80
2023-01-24T12:29:16.932Z,9.63
2023-01-24T12:31:51.093Z,9.60
2023-01-24T12:34:34.786Z,8.30
2023-01-24T12:37:20.370Z,9.30
2023-01-24T12:40:16.356Z,10.18
2023-01-24T12:43:18.556Z,10.20
2023-01-24T12:46:03.342Z,9.45
2023-01-24T12:48:37.231Z,12.85
2023-01-24T12:51:33.690Z,12.10
2023-01-24T12:54:23.132Z,12.13
2023-01-24T12:56:54.432Z,13.52
2023-01-24T12:59:29.146Z,12.85
2023-01-24T13:02:24.188Z,11.40
2023-01-24T13:05:16.072Z,10.02
2023-01-24T13:08:19.462Z,8.85
2023-01-24T13:10:58.465Z,8.63
2023-01-24T13:13:32.375Z,8.20
2023-01-24T13:16:21.223Z,8.52
2023-01-24T13:18:57.022Z,7.60
2023-01-24T13:21:47.835Z,7.40
2023-01-24T13:24:41.863Z,8.05
2023-01-24T13:27:37.904Z,9.35
2023-01-24T13:30:50.637Z,8.43
2023-01-24T13:33:27.235Z,9.32
2023-01-24T13:35:57.316Z,9.02
2023-01-24T13:38:28.804Z,9.32
2023-01-24T13:41:07.998Z,9.93
2023-01-24T13:43:40.613Z,9.50
2023-01-24T13:46:07.758Z,9.05
2023-01-24T13:48:40.969Z,8.13
2023-01-24T13:51:33.253Z,7.43
2023-01-24T13:54:02.905Z,7.75
2023-01-24T13:56:30.371Z,8.60
2023-01-24T13:58:59.138Z,8.05
2023-01-24T14:01:27.630Z,7.50
2023-01-24T14:04:01.917Z,7.47
2023-01-24T14:06:46.150Z,8.15
2023-01-24T14:09:26.631Z,7.85
2023-01-24T14:11:59.333Z,7.20
2023-01-24T14:14:33.349Z,8.85
2023-01-24T14:17:21.701Z,8.40
2023-01-24T14:19:49.194Z,7.47
2023-01-24T14:22:22.447Z,8.35
2023-01-24T14:25:28.560Z,9.65
2023-01-24T14:28:02.049Z,7.18
2023-01-24T14:30:41.030Z,8.52
2023-01-24T14:33:43.688Z,7.78
2023-01-24T14:36:33.980Z,15.20
2023-01-24T14:39:20.630Z,26.80
2023-01-24T14:41:50.308Z,23.88
2023-01-24T14:44:38.352Z,22.70
2023-01-24T14:47:22.001Z,49.83
2023-01-24T14:49:54.163Z,25.90
2023-01-24T14:52:27.498Z,25.13
2023-01-24T14:55:00.690Z,24.20
2023-01-24T14:57:32.358Z,22.67
2023-01-24T15:00:12.065Z,16.55
2023-01-24T15:02:50.695Z,17.67
2023-01-24T15:05:29.123Z,14.75
2023-01-24T15:08:01.388Z,14.30
2023-01-24T15:10:55.838Z,13.50
2023-01-24T15:13:37.743Z,12.13
2023-01-24T15:16:06.014Z,13.60
2023-01-24T15:18:41.635Z,11.38
2023-01-24T15:21:34.609Z,12.63
2023-01-24T15:24:03.148Z,13.82
2023-01-24T15:26:31.987Z,12.65
2023-01-24T15:28:59.176Z,10.88
2023-01-24T15:31:30.782Z,10.43
2023-01-24T15:34:00.451Z,8.88
2023-01-24T15:36:34.343Z,8.88
2023-01-24T15:39:02.776Z,7.78
2023-01-24T15:41:55.785Z,6.72
2023-01-24T15:44:24.507Z,7.90
2023-01-24T15:47:17.175Z,7.45
2023-01-24T15:50:01.373Z,7.35
2023-01-24T15:52:28.773Z,7.05
2023-01-24T15:55:01.710Z,6.60
2023-01-24T15:57:38.932Z,7.97
2023-01-24T16:00:09.076Z,6.93
2023-01-24T16:02:39.537Z,8.57
2023-01-24T16:05:18.520Z,7.50
2023-01-24T16:07:46.126Z,7.65
2023-01-24T16:10:17.227Z,8.38
2023-01-24T16:12:46.393Z,7.55
2023-01-24T16:15:19.408Z,7.88
2023-01-24T16:17:46.714Z,6.32
2023-01-24T16:20:24.628Z,6.47
2023-01-24T16:22:51.898Z,7.38
2023-01-24T16:25:20.397Z,7.25
2023-01-24T16:27:48.686Z,6.07
2023-01-24T16:30:26.422Z,6.93
2023-01-24T16:32:55.611Z,6.50
2023-01-24T16:35:23.075Z,6.88
2023-01-24T16:37:50.417Z,6.68
2023-01-24T16:40:19.020Z,5.90
2023-01-24T16:42:47.723Z,6.57
2023-01-24T16:45:18.106Z,7.10
2023-01-24T16:47:48.605Z,6.53
2023-01-24T16:50:17.441Z,7.93
2023-01-24T16:52:44.771Z,7.90
2023-01-24T16:55:12.144Z,6.32
2023-01-24T16:57:39.469Z,6.90
2023-01-24T17:00:13.614Z,6.95
2023-01-24T17:02:42.439Z,8.93
2023-01-24T17:05:10.676Z,9.38
2023-01-24T17:07:37.886Z,9.68
2023-01-24T17:10:05.940Z,10.82
2023-01-24T17:12:33.516Z,9.93
2023-01-24T17:15:01.887Z,10.50
2023-01-24T17:17:29.139Z,9.10
2023-01-24T17:20:01.384Z,7.90
2023-01-24T17:22:31.363Z,7.90
2023-01-24T17:25:01.708Z,6.80
2023-01-24T17:27:29.151Z,8.18
2023-01-24T17:29:56.965Z,6.95
2023-01-24T17:32:29.587Z,7.00
2023-01-24T17:35:05.589Z,6.85
2023-01-24T17:37:32.849Z,7.25
2023-01-24T17:40:00.232Z,7.68
2023-01-24T17:42:31.203Z,8.80
2023-01-24T17:45:00.677Z,8.65
2023-01-24T17:47:30.913Z,8.32
2023-01-24T17:52:27.198Z,6.85
2023-01-24T17:54:54.525Z,8.38
2023-01-24T17:57:22.101Z,9.18
2023-01-24T18:02:54.129Z,7.10
2023-01-24T18:05:21.401Z,6.97
2023-01-24T18:07:48.305Z,7.10
2023-01-24T18:10:15.535Z,8.60
2023-01-24T18:12:50.947Z,8.10
2023-01-24T18:15:26.999Z,8.07
2023-01-24T18:19:25.989Z,7.95
2023-01-24T19:39:30.912Z,9.23
2023-01-24T19:42:11.947Z,9.93
2023-01-24T19:45:19.786Z,9.25
2023-01-24T20:04:31.040Z,10.23
2023-01-24T20:07:32.682Z,8.50
2023-01-24T20:09:57.937Z,9.02
2023-01-24T20:12:29.402Z,8.65
2023-01-24T20:19:31.565Z,8.55
2023-01-24T20:22:06.830Z,7.95
2023-01-24T20:24:37.134Z,7.63
2023-01-24T20:27:08.555Z,8.82
2023-01-24T20:33:20.147Z,6.82
2023-01-24T20:45:41.879Z,7.25
2023-01-24T20:49:18.673Z,7.50
2023-01-24T20:52:52.615Z,8.63
2023-01-24T20:59:58.977Z,8.93
2023-01-24T21:03:01.924Z,8.50
2023-01-24T21:22:26.787Z,9.20
2023-01-24T21:25:07.086Z,8.90
2023-01-24T21:27:36.762Z,8.32
2023-01-24T21:30:43.960Z,9.35
2023-01-24T21:33:18.877Z,8.82
2023-01-24T21:35:48.506Z,7.22
2023-01-24T21:38:28.544Z,7.85
2023-01-24T21:41:20.363Z,7.30
2023-01-24T21:43:48.068Z,10.70
2023-01-24T21:46:15.999Z,10.80
2023-01-24T21:49:02.129Z,9.60
2023-01-24T21:51:33.348Z,8.52
2023-01-24T21:54:03.091Z,10.07
2023-01-24T21:56:52.245Z,10.00
2023-01-24T21:59:20.889Z,7.88
2023-01-24T22:01:49.997Z,8.90
2023-01-24T22:04:19.863Z,10.75
2023-01-24T22:06:47.269Z,9.07
2023-01-24T22:09:16.661Z,12.23
2023-01-24T22:11:45.591Z,10.55
2023-01-24T22:14:16.089Z,12.10
2023-01-24T22:16:57.540Z,10.27
2023-01-24T22:19:36.206Z,10.53
2023-01-24T22:22:13.146Z,9.07
2023-01-24T22:24:43.008Z,8.50
2023-01-24T22:27:25.808Z,10.73
2023-01-24T22:29:56.634Z,9.50
2023-01-24T22:32:42.441Z,10.60
2023-01-24T22:35:21.592Z,7.85
2023-01-24T22:41:57.769Z,8.93
2023-01-24T22:44:25.206Z,9.07
2023-01-24T22:46:52.318Z,10.60
2023-01-24T22:49:19.409Z,10.65
2023-01-24T22:51:46.549Z,10.20
2023-01-24T22:54:14.057Z,9.88
2023-01-24T22:56:43.803Z,11.85
2023-01-24T22:59:11.026Z,13.65
2023-01-24T23:01:38.239Z,10.50
2023-01-24T23:04:11.671Z,10.88
2023-01-24T23:06:39.019Z,10.00
2023-01-24T23:09:06.671Z,10.95
2023-01-24T23:11:34.483Z,10.65
2023-01-24T23:14:28.780Z,9.63
2023-01-24T23:17:07.088Z,10.27
2023-01-24T23:20:47.652Z,9.85
2023-01-24T23:23:50.587Z,8.38
2023-01-24T23:26:17.706Z,8.63
2023-01-24T23:29:14.167Z,8.30
2023-01-24T23:36:17.795Z,9.52
2023-01-24T23:38:50.090Z,8.82
2023-01-24T23:41:43.455Z,9.68
2023-01-24T23:44:11.927Z,8.75
2023-01-24T23:46:47.803Z,7.93
2023-01-24T23:49:17.667Z,11.00
2023-01-24T23:51:57.305Z,8.82
2023-01-24T23:54:36.111Z,9.65
2023-01-24T23:57:33.690Z,10.02
